sensor_id;sensor_type;location;lat;lon;timestamp;P1;durP1;ratioP1;P2;durP2;ratioP2
9256;SDS011;4665;51.368;6.782;2022-10-31T00:02:22;8.60;;;5.63;;
9256;SDS011;4665;51.368;6.782;2022-10-31T00:04:47;6.73;;;5.33;;
9256;SDS011;4665;51.368;6.782;2022-10-31T00:07:20;8.70;;;5.30;;
9256;SDS011;4665;51.368;6.782;2022-10-31T00:09:45;6.80;;;5.37;;
9256;SDS011;4665;51.368;6.782;2022-10-31T00:12:18;7.37;;;4.93;;
9256;SDS011;4665;51.368;6.782;2022-10-31T00:14:43;6.73;;;5.57;;
9256;SDS011;4665;51.368;6.782;2022-10-31T00:19:41;5.93;;;4.97;;
9256;SDS011;4665;51.368;6.782;2022-10-31T00:22:14;10.53;;;5.73;;
9256;SDS011;4665;51.368;6.782;2022-10-31T00:24:40;7.57;;;5.60;;
9256;SDS011;4665;51.368;6.782;2022-10-31T00:27:12;11.30;;;5.10;;
9256;SDS011;4665;51.368;6.782;2022-10-31T00:29:38;10.27;;;5.60;;
9256;SDS011;4665;51.368;6.782;2022-10-31T00:32:10;5.50;;;5.00;;
9256;SDS011;4665;51.368;6.782;2022-10-31T00:34:36;9.97;;;4.97;;
9256;SDS011;4665;51.368;6.782;2022-10-31T00:37:10;5.93;;;5.30;;
9256;SDS011;4665;51.368;6.782;2022-10-31T00:39:36;11.13;;;5.67;;
9256;SDS011;4665;51.368;6.782;2022-10-31T00:42:06;6.10;;;4.70;;
9256;SDS011;4665;51.368;6.782;2022-10-31T00:44:32;9.07;;;5.73;;
9256;SDS011;4665;51.368;6.782;2022-10-31T00:47:06;6.30;;;5.23;;
9256;SDS011;4665;51.368;6.782;2022-10-31T00:49:32;7.57;;;5.30;;
9256;SDS011;4665;51.368;6.782;2022-10-31T00:52:03;7.47;;;5.47;;
9256;SDS011;4665;51.368;6.782;2022-10-31T00:54:29;8.00;;;5.50;;
9256;SDS011;4665;51.368;6.782;2022-10-31T00:56:55;9.17;;;6.07;;
9256;SDS011;4665;51.368;6.782;2022-10-31T00:59:21;7.47;;;5.47;;
9256;SDS011;4665;51.368;6.782;2022-10-31T01:04:16;7.77;;;6.60;;
9256;SDS011;4665;51.368;6.782;2022-10-31T01:06:57;5.67;;;5.17;;
9256;SDS011;4665;51.368;6.782;2022-10-31T01:09:22;6.87;;;5.07;;
9256;SDS011;4665;51.368;6.782;2022-10-31T01:11:55;5.63;;;5.00;;
9256;SDS011;4665;51.368;6.782;2022-10-31T01:14:20;8.17;;;5.37;;
9256;SDS011;4665;51.368;6.782;2022-10-31T01:16:47;8.73;;;5.77;;
9256;SDS011;4665;51.368;6.782;2022-10-31T01:19:12;10.17;;;5.37;;
9256;SDS011;4665;51.368;6.782;2022-10-31T01:21:53;9.27;;;6.10;;
9256;SDS011;4665;51.368;6.782;2022-10-31T01:24:20;7.27;;;5.37;;
9256;SDS011;4665;51.368;6.782;2022-10-31T01:26:50;6.97;;;5.57;;
9256;SDS011;4665;51.368;6.782;2022-10-31T01:29:16;13.17;;;7.63;;
9256;SDS011;4665;51.368;6.782;2022-10-31T01:31:48;7.33;;;6.20;;
9256;SDS011;4665;51.368;6.782;2022-10-31T01:34:14;9.43;;;5.97;;
9256;SDS011;4665;51.368;6.782;2022-10-31T01:39:16;8.57;;;5.57;;
9256;SDS011;4665;51.368;6.782;2022-10-31T01:44:53;6.70;;;5.60;;
9256;SDS011;4665;51.368;6.782;2022-10-31T01:47:29;5.93;;;5.33;;
9256;SDS011;4665;51.368;6.782;2022-10-31T01:50:50;10.50;;;5.77;;
9256;SDS011;4665;51.368;6.782;2022-10-31T01:53:10;7.80;;;5.63;;
9256;SDS011;4665;51.368;6.782;2022-10-31T01:55:41;10.63;;;5.73;;
9256;SDS011;4665;51.368;6.782;2022-10-31T02:00:51;6.73;;;4.83;;
9256;SDS011;4665;51.368;6.782;2022-10-31T02:03:36;8.40;;;5.60;;
9256;SDS011;4665;51.368;6.782;2022-10-31T02:06:01;7.30;;;5.10;;
9256;SDS011;4665;51.368;6.782;2022-10-31T02:08:37;6.87;;;4.90;;
9256;SDS011;4665;51.368;6.782;2022-10-31T02:11:04;8.87;;;5.87;;
9256;SDS011;4665;51.368;6.782;2022-10-31T02:13:32;6.97;;;5.73;;
9256;SDS011;4665;51.368;6.782;2022-10-31T02:15:59;7.37;;;5.63;;
9256;SDS011;4665;51.368;6.782;2022-10-31T02:18:30;5.43;;;4.93;;
9256;SDS011;4665;51.368;6.782;2022-10-31T02:40:44;10.17;;;5.83;;
9256;SDS011;4665;51.368;6.782;2022-10-31T02:43:48;8.73;;;5.90;;
9256;SDS011;4665;51.368;6.782;2022-10-31T02:47:03;8.77;;;5.20;;
9256;SDS011;4665;51.368;6.782;2022-10-31T02:49:52;8.80;;;5.93;;
9256;SDS011;4665;51.368;6.782;2022-10-31T02:52:38;9.40;;;5.83;;
9256;SDS011;4665;51.368;6.782;2022-10-31T02:58:11;7.80;;;5.20;;
9256;SDS011;4665;51.368;6.782;2022-10-31T03:04:01;10.13;;;5.27;;
9256;SDS011;4665;51.368;6.782;2022-10-31T03:06:42;10.97;;;6.57;;
9256;SDS011;4665;51.368;6.782;2022-10-31T03:09:33;7.13;;;5.60;;
9256;SDS011;4665;51.368;6.782;2022-10-31T03:14:54;8.67;;;5.70;;
9256;SDS011;4665;51.368;6.782;2022-10-31T03:17:36;8.63;;;5.87;;
9256;SDS011;4665;51.368;6.782;2022-10-31T03:20:06;6.07;;;5.47;;
9256;SDS011;4665;51.368;6.782;2022-10-31T03:22:35;8.97;;;6.20;;
9256;SDS011;4665;51.368;6.782;2022-10-31T03:25:04;6.60;;;5.27;;
9256;SDS011;4665;51.368;6.782;2022-10-31T03:27:33;8.20;;;5.37;;
9256;SDS011;4665;51.368;6.782;2022-10-31T03:30:02;7.80;;;5.97;;
9256;SDS011;4665;51.368;6.782;2022-10-31T03:32:43;7.07;;;5.20;;
9256;SDS011;4665;51.368;6.782;2022-10-31T03:35:14;9.57;;;5.17;;
9256;SDS011;4665;51.368;6.782;2022-10-31T03:37:42;6.73;;;5.10;;
9256;SDS011;4665;51.368;6.782;2022-10-31T03:42:48;7.27;;;5.20;;
9256;SDS011;4665;51.368;6.782;2022-10-31T03:45:39;6.53;;;5.47;;
9256;SDS011;4665;51.368;6.782;2022-10-31T03:48:09;6.97;;;5.40;;
9256;SDS011;4665;51.368;6.782;2022-10-31T03:53:21;7.83;;;5.80;;
9256;SDS011;4665;51.368;6.782;2022-10-31T03:56:19;8.67;;;6.53;;
9256;SDS011;4665;51.368;6.782;2022-10-31T04:01:32;9.03;;;5.67;;
9256;SDS011;4665;51.368;6.782;2022-10-31T04:04:08;5.60;;;5.07;;
9256;SDS011;4665;51.368;6.782;2022-10-31T04:06:35;8.37;;;5.43;;
9256;SDS011;4665;51.368;6.782;2022-10-31T04:11:37;5.90;;;5.30;;
9256;SDS011;4665;51.368;6.782;2022-10-31T04:14:14;7.53;;;5.20;;
9256;SDS011;4665;51.368;6.782;2022-10-31T04:16:45;7.30;;;5.47;;
9256;SDS011;4665;51.368;6.782;2022-10-31T04:19:11;6.70;;;6.00;;
9256;SDS011;4665;51.368;6.782;2022-10-31T04:21:43;6.90;;;5.53;;
9256;SDS011;4665;51.368;6.782;2022-10-31T04:24:09;7.37;;;4.93;;
9256;SDS011;4665;51.368;6.782;2022-10-31T04:26:35;8.37;;;5.40;;
9256;SDS011;4665;51.368;6.782;2022-10-31T04:29:00;7.17;;;5.30;;
9256;SDS011;4665;51.368;6.782;2022-10-31T04:31:40;6.50;;;5.57;;
9256;SDS011;4665;51.368;6.782;2022-10-31T04:34:06;5.83;;;5.13;;
9256;SDS011;4665;51.368;6.782;2022-10-31T04:36:37;10.60;;;6.00;;
9256;SDS011;4665;51.368;6.782;2022-10-31T04:39:02;6.70;;;5.47;;
9256;SDS011;4665;51.368;6.782;2022-10-31T04:41:35;6.17;;;5.57;;
9256;SDS011;4665;51.368;6.782;2022-10-31T04:44:01;6.10;;;4.80;;
9256;SDS011;4665;51.368;6.782;2022-10-31T04:46:34;7.00;;;5.53;;
9256;SDS011;4665;51.368;6.782;2022-10-31T04:48:59;8.03;;;6.30;;
9256;SDS011;4665;51.368;6.782;2022-10-31T04:51:32;6.30;;;5.20;;
9256;SDS011;4665;51.368;6.782;2022-10-31T04:53:57;6.80;;;5.50;;
9256;SDS011;4665;51.368;6.782;2022-10-31T04:56:30;7.50;;;5.23;;
9256;SDS011;4665;51.368;6.782;2022-10-31T04:58:55;6.07;;;5.30;;
9256;SDS011;4665;51.368;6.782;2022-10-31T05:01:21;6.57;;;5.50;;
9256;SDS011;4665;51.368;6.782;2022-10-31T05:03:47;8.33;;;5.70;;
9256;SDS011;4665;51.368;6.782;2022-10-31T05:06:13;5.73;;;5.13;;
9256;SDS011;4665;51.368;6.782;2022-10-31T05:08:45;7.97;;;5.60;;
9256;SDS011;4665;51.368;6.782;2022-10-31T05:11:11;5.63;;;5.07;;
9256;SDS011;4665;51.368;6.782;2022-10-31T05:13:43;7.03;;;5.50;;
9256;SDS011;4665;51.368;6.782;2022-10-31T05:16:09;6.90;;;5.63;;
9256;SDS011;4665;51.368;6.782;2022-10-31T05:21:06;6.07;;;5.57;;
9256;SDS011;4665;51.368;6.782;2022-10-31T05:23:31;9.13;;;5.97;;
9256;SDS011;4665;51.368;6.782;2022-10-31T05:25:57;6.07;;;5.17;;
9256;SDS011;4665;51.368;6.782;2022-10-31T05:28:22;5.93;;;5.33;;
9256;SDS011;4665;51.368;6.782;2022-10-31T05:30:47;5.40;;;4.90;;
9256;SDS011;4665;51.368;6.782;2022-10-31T05:33:14;9.30;;;5.07;;
9256;SDS011;4665;51.368;6.782;2022-10-31T05:35:39;6.63;;;5.10;;
9256;SDS011;4665;51.368;6.782;2022-10-31T05:38:04;5.80;;;4.63;;
9256;SDS011;4665;51.368;6.782;2022-10-31T05:40:30;5.87;;;5.27;;
9256;SDS011;4665;51.368;6.782;2022-10-31T05:42:56;6.00;;;5.40;;
9256;SDS011;4665;51.368;6.782;2022-10-31T05:45:23;12.27;;;5.33;;
9256;SDS011;4665;51.368;6.782;2022-10-31T05:47:50;6.53;;;5.07;;
9256;SDS011;4665;51.368;6.782;2022-10-31T05:50:19;5.77;;;4.83;;
9256;SDS011;4665;51.368;6.782;2022-10-31T05:52:45;9.87;;;5.40;;
9256;SDS011;4665;51.368;6.782;2022-10-31T05:55:11;6.17;;;5.53;;
9256;SDS011;4665;51.368;6.782;2022-10-31T05:57:36;10.17;;;6.27;;
9256;SDS011;4665;51.368;6.782;2022-10-31T06:00:02;6.90;;;5.33;;
9256;SDS011;4665;51.368;6.782;2022-10-31T06:02:29;7.23;;;5.43;;
9256;SDS011;4665;51.368;6.782;2022-10-31T06:04:59;10.83;;;5.67;;
9256;SDS011;4665;51.368;6.782;2022-10-31T06:07:26;6.83;;;6.03;;
9256;SDS011;4665;51.368;6.782;2022-10-31T06:09:52;6.57;;;5.50;;
9256;SDS011;4665;51.368;6.782;2022-10-31T06:12:17;6.67;;;5.20;;
9256;SDS011;4665;51.368;6.782;2022-10-31T06:14:43;6.47;;;5.30;;
9256;SDS011;4665;51.368;6.782;2022-10-31T06:17:08;7.20;;;5.17;;
9256;SDS011;4665;51.368;6.782;2022-10-31T06:19:33;6.97;;;5.87;;
9256;SDS011;4665;51.368;6.782;2022-10-31T06:25:03;7.27;;;5.20;;
9256;SDS011;4665;51.368;6.782;2022-10-31T06:27:44;8.00;;;5.87;;
9256;SDS011;4665;51.368;6.782;2022-10-31T06:30:10;6.20;;;5.60;;
9256;SDS011;4665;51.368;6.782;2022-10-31T06:32:37;9.57;;;5.07;;
9256;SDS011;4665;51.368;6.782;2022-10-31T06:35:02;5.87;;;4.77;;
9256;SDS011;4665;51.368;6.782;2022-10-31T06:37:28;7.20;;;5.90;;
9256;SDS011;4665;51.368;6.782;2022-10-31T06:39:53;6.80;;;5.47;;
9256;SDS011;4665;51.368;6.782;2022-10-31T06:42:18;5.47;;;4.93;;
9256;SDS011;4665;51.368;6.782;2022-10-31T06:44:44;5.80;;;5.23;;
9256;SDS011;4665;51.368;6.782;2022-10-31T06:47:09;7.73;;;5.83;;
9256;SDS011;4665;51.368;6.782;2022-10-31T06:49:34;5.37;;;4.87;;
9256;SDS011;4665;51.368;6.782;2022-10-31T06:52:00;5.67;;;4.93;;
9256;SDS011;4665;51.368;6.782;2022-10-31T06:54:25;5.40;;;4.90;;
9256;SDS011;4665;51.368;6.782;2022-10-31T06:56:51;7.37;;;5.80;;
9256;SDS011;4665;51.368;6.782;2022-10-31T06:59:16;6.10;;;5.50;;
9256;SDS011;4665;51.368;6.782;2022-10-31T07:01:42;9.50;;;5.50;;
9256;SDS011;4665;51.368;6.782;2022-10-31T07:04:11;10.13;;;5.43;;
9256;SDS011;4665;51.368;6.782;2022-10-31T07:06:37;9.03;;;5.70;;
9256;SDS011;4665;51.368;6.782;2022-10-31T07:09:03;9.47;;;6.07;;
9256;SDS011;4665;51.368;6.782;2022-10-31T07:11:29;9.60;;;5.80;;
9256;SDS011;4665;51.368;6.782;2022-10-31T07:13:54;6.47;;;5.73;;
9256;SDS011;4665;51.368;6.782;2022-10-31T07:16:19;6.57;;;5.87;;
9256;SDS011;4665;51.368;6.782;2022-10-31T07:18:45;8.93;;;6.20;;
9256;SDS011;4665;51.368;6.782;2022-10-31T07:21:10;7.07;;;5.90;;
9256;SDS011;4665;51.368;6.782;2022-10-31T07:23:36;8.93;;;6.70;;
9256;SDS011;4665;51.368;6.782;2022-10-31T07:26:01;9.07;;;5.90;;
9256;SDS011;4665;51.368;6.782;2022-10-31T07:28:27;6.37;;;5.60;;
9256;SDS011;4665;51.368;6.782;2022-10-31T07:30:54;10.73;;;7.33;;
9256;SDS011;4665;51.368;6.782;2022-10-31T07:33:21;9.63;;;6.70;;
9256;SDS011;4665;51.368;6.782;2022-10-31T07:35:47;8.37;;;6.00;;
9256;SDS011;4665;51.368;6.782;2022-10-31T07:38:13;11.13;;;5.80;;
9256;SDS011;4665;51.368;6.782;2022-10-31T07:40:40;7.20;;;6.50;;
9256;SDS011;4665;51.368;6.782;2022-10-31T07:43:06;8.07;;;6.07;;
9256;SDS011;4665;51.368;6.782;2022-10-31T07:45:32;10.93;;;6.67;;
9256;SDS011;4665;51.368;6.782;2022-10-31T07:47:58;10.77;;;7.23;;
9256;SDS011;4665;51.368;6.782;2022-10-31T07:50:25;10.37;;;7.40;;
9256;SDS011;4665;51.368;6.782;2022-10-31T07:53:03;7.80;;;6.60;;
9256;SDS011;4665;51.368;6.782;2022-10-31T07:55:34;10.40;;;7.07;;
9256;SDS011;4665;51.368;6.782;2022-10-31T07:58:02;8.50;;;6.47;;
9256;SDS011;4665;51.368;6.782;2022-10-31T08:00:29;12.00;;;6.80;;
9256;SDS011;4665;51.368;6.782;2022-10-31T08:05:25;7.63;;;6.77;;
9256;SDS011;4665;51.368;6.782;2022-10-31T08:07:51;10.40;;;7.37;;
9256;SDS011;4665;51.368;6.782;2022-10-31T08:10:16;12.17;;;7.97;;
9256;SDS011;4665;51.368;6.782;2022-10-31T08:12:42;9.73;;;7.10;;
9256;SDS011;4665;51.368;6.782;2022-10-31T08:15:07;11.03;;;7.77;;
9256;SDS011;4665;51.368;6.782;2022-10-31T08:17:36;9.80;;;8.03;;
9256;SDS011;4665;51.368;6.782;2022-10-31T08:20:03;13.17;;;8.50;;
9256;SDS011;4665;51.368;6.782;2022-10-31T08:22:29;8.80;;;7.30;;
9256;SDS011;4665;51.368;6.782;2022-10-31T08:24:55;7.87;;;6.83;;
9256;SDS011;4665;51.368;6.782;2022-10-31T08:27:20;12.73;;;8.43;;
9256;SDS011;4665;51.368;6.782;2022-10-31T08:29:45;8.00;;;7.20;;
9256;SDS011;4665;51.368;6.782;2022-10-31T08:32:11;10.23;;;7.33;;
9256;SDS011;4665;51.368;6.782;2022-10-31T08:34:36;13.73;;;9.10;;
9256;SDS011;4665;51.368;6.782;2022-10-31T08:37:02;12.17;;;8.90;;
9256;SDS011;4665;51.368;6.782;2022-10-31T08:39:27;12.90;;;9.77;;
9256;SDS011;4665;51.368;6.782;2022-10-31T08:41:54;11.67;;;9.63;;
9256;SDS011;4665;51.368;6.782;2022-10-31T08:44:19;15.90;;;10.43;;
9256;SDS011;4665;51.368;6.782;2022-10-31T08:46:44;15.20;;;10.37;;
9256;SDS011;4665;51.368;6.782;2022-10-31T08:49:10;14.70;;;10.70;;
9256;SDS011;4665;51.368;6.782;2022-10-31T08:51:35;18.53;;;11.07;;
9256;SDS011;4665;51.368;6.782;2022-10-31T08:54:01;16.57;;;11.50;;
9256;SDS011;4665;51.368;6.782;2022-10-31T08:59:20;18.73;;;11.10;;
9256;SDS011;4665;51.368;6.782;2022-10-31T09:05:00;17.00;;;12.20;;
9256;SDS011;4665;51.368;6.782;2022-10-31T09:10:11;18.97;;;13.03;;
9256;SDS011;4665;51.368;6.782;2022-10-31T09:15:58;15.13;;;11.17;;
9256;SDS011;4665;51.368;6.782;2022-10-31T09:18:39;17.00;;;11.27;;
9256;SDS011;4665;51.368;6.782;2022-10-31T09:21:04;27.80;;;14.67;;
9256;SDS011;4665;51.368;6.782;2022-10-31T09:26:36;17.60;;;12.53;;
9256;SDS011;4665;51.368;6.782;2022-10-31T09:32:23;17.10;;;11.90;;
9256;SDS011;4665;51.368;6.782;2022-10-31T09:41:05;17.90;;;11.00;;
9256;SDS011;4665;51.368;6.782;2022-10-31T09:44:05;16.10;;;10.70;;
9256;SDS011;4665;51.368;6.782;2022-10-31T09:52:58;14.30;;;10.47;;
9256;SDS011;4665;51.368;6.782;2022-10-31T09:55:44;12.00;;;10.30;;
9256;SDS011;4665;51.368;6.782;2022-10-31T10:23:07;16.33;;;11.13;;
9256;SDS011;4665;51.368;6.782;2022-10-31T10:25:39;18.27;;;12.10;;
9256;SDS011;4665;51.368;6.782;2022-10-31T10:31:09;23.00;;;13.13;;
9256;SDS011;4665;51.368;6.782;2022-10-31T10:39:54;17.00;;;11.90;;
9256;SDS011;4665;51.368;6.782;2022-10-31T10:42:24;14.10;;;11.50;;
9256;SDS011;4665;51.368;6.782;2022-10-31T10:45:14;15.80;;;10.87;;
9256;SDS011;4665;51.368;6.782;2022-10-31T10:52:04;12.67;;;9.43;;
9256;SDS011;4665;51.368;6.782;2022-10-31T10:57:52;15.83;;;11.77;;
9256;SDS011;4665;51.368;6.782;2022-10-31T11:00:24;15.13;;;11.17;;
9256;SDS011;4665;51.368;6.782;2022-10-31T11:02:52;18.00;;;11.20;;
9256;SDS011;4665;51.368;6.782;2022-10-31T11:08:03;17.17;;;12.00;;
9256;SDS011;4665;51.368;6.782;2022-10-31T11:10:43;21.23;;;12.40;;
9256;SDS011;4665;51.368;6.782;2022-10-31T11:15:49;15.43;;;11.97;;
9256;SDS011;4665;51.368;6.782;2022-10-31T11:18:45;15.67;;;11.17;;
9256;SDS011;4665;51.368;6.782;2022-10-31T11:26:34;18.00;;;11.73;;
9256;SDS011;4665;51.368;6.782;2022-10-31T11:29:02;16.27;;;11.73;;
9256;SDS011;4665;51.368;6.782;2022-10-31T11:31:28;17.50;;;12.80;;
9256;SDS011;4665;51.368;6.782;2022-10-31T11:37:20;15.70;;;10.73;;
9256;SDS011;4665;51.368;6.782;2022-10-31T11:39:59;10.57;;;8.80;;
9256;SDS011;4665;51.368;6.782;2022-10-31T11:42:40;13.83;;;9.43;;
9256;SDS011;4665;51.368;6.782;2022-10-31T11:45:13;15.10;;;10.37;;
9256;SDS011;4665;51.368;6.782;2022-10-31T11:47:42;14.00;;;9.23;;
9256;SDS011;4665;51.368;6.782;2022-10-31T11:50:11;13.37;;;9.57;;
9256;SDS011;4665;51.368;6.782;2022-10-31T11:52:53;14.40;;;9.67;;
9256;SDS011;4665;51.368;6.782;2022-10-31T11:55:30;17.50;;;10.00;;
9256;SDS011;4665;51.368;6.782;2022-10-31T12:00:51;13.17;;;9.43;;
9256;SDS011;4665;51.368;6.782;2022-10-31T12:06:41;13.93;;;8.53;;
9256;SDS011;4665;51.368;6.782;2022-10-31T12:09:23;10.07;;;8.17;;
9256;SDS011;4665;51.368;6.782;2022-10-31T12:26:32;17.30;;;6.33;;
9256;SDS011;4665;51.368;6.782;2022-10-31T12:29:14;6.97;;;5.43;;
9256;SDS011;4665;51.368;6.782;2022-10-31T12:38:05;13.27;;;6.27;;
9256;SDS011;4665;51.368;6.782;2022-10-31T12:41:14;9.10;;;5.60;;
9256;SDS011;4665;51.368;6.782;2022-10-31T12:58:42;9.13;;;4.33;;
9256;SDS011;4665;51.368;6.782;2022-10-31T13:01:36;10.03;;;4.43;;
9256;SDS011;4665;51.368;6.782;2022-10-31T13:07:48;10.10;;;4.73;;
9256;SDS011;4665;51.368;6.782;2022-10-31T13:13:32;5.73;;;4.67;;
9256;SDS011;4665;51.368;6.782;2022-10-31T13:27:26;5.27;;;3.77;;
9256;SDS011;4665;51.368;6.782;2022-10-31T13:41:04;9.57;;;4.50;;
9256;SDS011;4665;51.368;6.782;2022-10-31T13:51:28;6.20;;;3.60;;
9256;SDS011;4665;51.368;6.782;2022-10-31T13:54:06;7.77;;;3.43;;
9256;SDS011;4665;51.368;6.782;2022-10-31T13:56:48;7.00;;;3.63;;
9256;SDS011;4665;51.368;6.782;2022-10-31T13:59:19;8.83;;;4.30;;
9256;SDS011;4665;51.368;6.782;2022-10-31T14:01:57;6.97;;;3.80;;
9256;SDS011;4665;51.368;6.782;2022-10-31T14:07:13;7.60;;;3.47;;
9256;SDS011;4665;51.368;6.782;2022-10-31T14:12:29;4.00;;;3.57;;
9256;SDS011;4665;51.368;6.782;2022-10-31T14:17:58;8.43;;;3.80;;
9256;SDS011;4665;51.368;6.782;2022-10-31T14:23:10;8.20;;;4.20;;
9256;SDS011;4665;51.368;6.782;2022-10-31T14:28:56;7.43;;;3.80;;
9256;SDS011;4665;51.368;6.782;2022-10-31T14:35:12;5.47;;;3.47;;
9256;SDS011;4665;51.368;6.782;2022-10-31T14:38:00;6.70;;;3.73;;
9256;SDS011;4665;51.368;6.782;2022-10-31T14:43:41;6.30;;;3.30;;
9256;SDS011;4665;51.368;6.782;2022-10-31T14:52:24;7.30;;;3.53;;
9256;SDS011;4665;51.368;6.782;2022-10-31T14:54:53;7.00;;;3.80;;
9256;SDS011;4665;51.368;6.782;2022-10-31T14:57:25;9.67;;;3.97;;
9256;SDS011;4665;51.368;6.782;2022-10-31T15:05:17;4.60;;;3.30;;
9256;SDS011;4665;51.368;6.782;2022-10-31T15:07:51;6.87;;;3.83;;
9256;SDS011;4665;51.368;6.782;2022-10-31T15:13:19;7.93;;;3.83;;
9256;SDS011;4665;51.368;6.782;2022-10-31T15:15:55;6.97;;;3.77;;
9256;SDS011;4665;51.368;6.782;2022-10-31T15:18:22;4.97;;;3.70;;
9256;SDS011;4665;51.368;6.782;2022-10-31T15:20:50;6.53;;;4.10;;
9256;SDS011;4665;51.368;6.782;2022-10-31T15:23:28;8.07;;;4.40;;
9256;SDS011;4665;51.368;6.782;2022-10-31T15:26:02;16.47;;;4.87;;
9256;SDS011;4665;51.368;6.782;2022-10-31T15:28:32;7.27;;;3.77;;
9256;SDS011;4665;51.368;6.782;2022-10-31T15:30:58;6.63;;;4.00;;
9256;SDS011;4665;51.368;6.782;2022-10-31T15:33:39;6.33;;;3.87;;
9256;SDS011;4665;51.368;6.782;2022-10-31T15:36:06;6.63;;;4.70;;
9256;SDS011;4665;51.368;6.782;2022-10-31T15:38:42;8.13;;;4.33;;
9256;SDS011;4665;51.368;6.782;2022-10-31T15:41:19;6.93;;;4.30;;
9256;SDS011;4665;51.368;6.782;2022-10-31T15:43:46;6.93;;;4.03;;
9256;SDS011;4665;51.368;6.782;2022-10-31T15:46:14;9.40;;;3.63;;
9256;SDS011;4665;51.368;6.782;2022-10-31T15:48:43;6.63;;;3.50;;
9256;SDS011;4665;51.368;6.782;2022-10-31T15:51:11;5.10;;;3.63;;
9256;SDS011;4665;51.368;6.782;2022-10-31T15:53:48;6.10;;;3.30;;
9256;SDS011;4665;51.368;6.782;2022-10-31T15:56:30;6.33;;;3.67;;
9256;SDS011;4665;51.368;6.782;2022-10-31T15:58:57;6.57;;;3.70;;
9256;SDS011;4665;51.368;6.782;2022-10-31T16:01:35;6.43;;;3.93;;
9256;SDS011;4665;51.368;6.782;2022-10-31T16:04:02;7.80;;;3.50;;
9256;SDS011;4665;51.368;6.782;2022-10-31T16:06:42;5.00;;;3.40;;
9256;SDS011;4665;51.368;6.782;2022-10-31T16:09:21;5.67;;;3.40;;
9256;SDS011;4665;51.368;6.782;2022-10-31T16:14:38;4.07;;;3.40;;
9256;SDS011;4665;51.368;6.782;2022-10-31T16:17:24;8.37;;;3.50;;
9256;SDS011;4665;51.368;6.782;2022-10-31T16:23:13;6.20;;;3.83;;
9256;SDS011;4665;51.368;6.782;2022-10-31T16:25:43;7.40;;;3.20;;
9256;SDS011;4665;51.368;6.782;2022-10-31T16:28:19;11.17;;;3.90;;
9256;SDS011;4665;51.368;6.782;2022-10-31T16:30:54;6.37;;;4.30;;
9256;SDS011;4665;51.368;6.782;2022-10-31T16:38:58;8.43;;;3.73;;
9256;SDS011;4665;51.368;6.782;2022-10-31T16:41:24;7.27;;;3.90;;
9256;SDS011;4665;51.368;6.782;2022-10-31T16:43:55;7.13;;;3.10;;
9256;SDS011;4665;51.368;6.782;2022-10-31T16:46:22;4.97;;;3.67;;
9256;SDS011;4665;51.368;6.782;2022-10-31T16:48:50;5.57;;;3.43;;
9256;SDS011;4665;51.368;6.782;2022-10-31T16:51:16;5.43;;;3.70;;
9256;SDS011;4665;51.368;6.782;2022-10-31T16:53:42;7.97;;;4.17;;
9256;SDS011;4665;51.368;6.782;2022-10-31T16:56:12;6.90;;;3.57;;
9256;SDS011;4665;51.368;6.782;2022-10-31T16:58:41;10.67;;;5.70;;
9256;SDS011;4665;51.368;6.782;2022-10-31T17:01:06;13.03;;;7.67;;
9256;SDS011;4665;51.368;6.782;2022-10-31T17:03:32;9.43;;;5.37;;
9256;SDS011;4665;51.368;6.782;2022-10-31T17:06:12;7.53;;;4.93;;
9256;SDS011;4665;51.368;6.782;2022-10-31T17:08:37;10.10;;;4.90;;
9256;SDS011;4665;51.368;6.782;2022-10-31T17:11:03;7.23;;;4.77;;
9256;SDS011;4665;51.368;6.782;2022-10-31T17:13:29;8.40;;;4.67;;
9256;SDS011;4665;51.368;6.782;2022-10-31T17:15:57;5.37;;;3.70;;
9256;SDS011;4665;51.368;6.782;2022-10-31T17:18:24;6.07;;;3.90;;
9256;SDS011;4665;51.368;6.782;2022-10-31T17:20:50;5.40;;;3.87;;
9256;SDS011;4665;51.368;6.782;2022-10-31T17:23:21;4.20;;;3.57;;
9256;SDS011;4665;51.368;6.782;2022-10-31T17:25:46;4.93;;;3.73;;
9256;SDS011;4665;51.368;6.782;2022-10-31T17:28:25;7.23;;;4.33;;
9256;SDS011;4665;51.368;6.782;2022-10-31T17:30:52;5.27;;;4.07;;
9256;SDS011;4665;51.368;6.782;2022-10-31T17:36:07;7.30;;;3.13;;
9256;SDS011;4665;51.368;6.782;2022-10-31T17:38:33;6.20;;;3.33;;
9256;SDS011;4665;51.368;6.782;2022-10-31T17:41:03;8.93;;;3.43;;
9256;SDS011;4665;51.368;6.782;2022-10-31T17:43:29;6.40;;;3.30;;
9256;SDS011;4665;51.368;6.782;2022-10-31T17:45:57;6.07;;;3.10;;
9256;SDS011;4665;51.368;6.782;2022-10-31T17:48:23;6.23;;;3.50;;
9256;SDS011;4665;51.368;6.782;2022-10-31T17:50:49;6.73;;;3.17;;
9256;SDS011;4665;51.368;6.782;2022-10-31T17:53:14;6.47;;;3.20;;
9256;SDS011;4665;51.368;6.782;2022-10-31T17:55:40;6.30;;;3.10;;
9256;SDS011;4665;51.368;6.782;2022-10-31T17:58:05;7.23;;;3.20;;
9256;SDS011;4665;51.368;6.782;2022-10-31T18:00:31;7.03;;;3.40;;
9256;SDS011;4665;51.368;6.782;2022-10-31T18:02:57;4.00;;;2.80;;
9256;SDS011;4665;51.368;6.782;2022-10-31T18:05:22;4.33;;;3.20;;
9256;SDS011;4665;51.368;6.782;2022-10-31T18:07:48;4.73;;;2.93;;
9256;SDS011;4665;51.368;6.782;2022-10-31T18:10:15;8.83;;;3.67;;
9256;SDS011;4665;51.368;6.782;2022-10-31T18:12:40;8.40;;;3.40;;
9256;SDS011;4665;51.368;6.782;2022-10-31T18:15:06;6.87;;;3.03;;
9256;SDS011;4665;51.368;6.782;2022-10-31T18:17:31;6.00;;;2.87;;
9256;SDS011;4665;51.368;6.782;2022-10-31T18:19:57;5.53;;;2.97;;
9256;SDS011;4665;51.368;6.782;2022-10-31T18:22:22;5.20;;;2.87;;
9256;SDS011;4665;51.368;6.782;2022-10-31T18:24:48;8.93;;;3.70;;
9256;SDS011;4665;51.368;6.782;2022-10-31T18:27:13;9.27;;;3.50;;
9256;SDS011;4665;51.368;6.782;2022-10-31T18:29:39;6.57;;;2.80;;
9256;SDS011;4665;51.368;6.782;2022-10-31T18:32:04;5.80;;;3.17;;
9256;SDS011;4665;51.368;6.782;2022-10-31T18:34:31;4.27;;;2.90;;
9256;SDS011;4665;51.368;6.782;2022-10-31T18:36:57;4.47;;;2.97;;
9256;SDS011;4665;51.368;6.782;2022-10-31T18:39:22;5.73;;;3.30;;
9256;SDS011;4665;51.368;6.782;2022-10-31T18:41:47;7.03;;;3.17;;
9256;SDS011;4665;51.368;6.782;2022-10-31T18:44:13;10.77;;;3.30;;
9256;SDS011;4665;51.368;6.782;2022-10-31T18:46:38;5.03;;;3.47;;
9256;SDS011;4665;51.368;6.782;2022-10-31T18:49:04;6.43;;;3.20;;
9256;SDS011;4665;51.368;6.782;2022-10-31T18:51:29;8.17;;;3.70;;
9256;SDS011;4665;51.368;6.782;2022-10-31T18:53:56;7.67;;;3.63;;
9256;SDS011;4665;51.368;6.782;2022-10-31T18:56:24;6.23;;;2.97;;
9256;SDS011;4665;51.368;6.782;2022-10-31T18:58:51;6.77;;;3.30;;
9256;SDS011;4665;51.368;6.782;2022-10-31T19:01:17;4.60;;;3.13;;
9256;SDS011;4665;51.368;6.782;2022-10-31T19:03:44;5.30;;;3.50;;
9256;SDS011;4665;51.368;6.782;2022-10-31T19:06:09;6.03;;;3.10;;
9256;SDS011;4665;51.368;6.782;2022-10-31T19:08:36;7.53;;;3.97;;
9256;SDS011;4665;51.368;6.782;2022-10-31T19:11:06;5.50;;;4.20;;
9256;SDS011;4665;51.368;6.782;2022-10-31T19:13:33;5.47;;;3.27;;
9256;SDS011;4665;51.368;6.782;2022-10-31T19:16:05;7.97;;;4.00;;
9256;SDS011;4665;51.368;6.782;2022-10-31T19:18:33;9.37;;;3.77;;
9256;SDS011;4665;51.368;6.782;2022-10-31T19:21:03;6.50;;;3.73;;
9256;SDS011;4665;51.368;6.782;2022-10-31T19:23:32;5.23;;;2.83;;
9256;SDS011;4665;51.368;6.782;2022-10-31T19:25:58;8.23;;;3.63;;
9256;SDS011;4665;51.368;6.782;2022-10-31T19:28:24;5.90;;;3.70;;
9256;SDS011;4665;51.368;6.782;2022-10-31T19:30:53;8.27;;;3.20;;
9256;SDS011;4665;51.368;6.782;2022-10-31T19:33:19;4.80;;;3.50;;
9256;SDS011;4665;51.368;6.782;2022-10-31T19:35:45;8.47;;;3.50;;
9256;SDS011;4665;51.368;6.782;2022-10-31T19:38:10;5.20;;;3.20;;
9256;SDS011;4665;51.368;6.782;2022-10-31T19:40:35;6.27;;;3.20;;
9256;SDS011;4665;51.368;6.782;2022-10-31T19:43:02;5.70;;;3.07;;
9256;SDS011;4665;51.368;6.782;2022-10-31T19:45:28;5.77;;;3.17;;
9256;SDS011;4665;51.368;6.782;2022-10-31T19:47:53;5.53;;;3.50;;
9256;SDS011;4665;51.368;6.782;2022-10-31T19:50:19;6.23;;;3.20;;
9256;SDS011;4665;51.368;6.782;2022-10-31T19:52:45;7.07;;;3.33;;
9256;SDS011;4665;51.368;6.782;2022-10-31T19:55:11;6.20;;;3.00;;
9256;SDS011;4665;51.368;6.782;2022-10-31T19:57:36;5.73;;;3.40;;
9256;SDS011;4665;51.368;6.782;2022-10-31T20:00:02;7.43;;;3.60;;
9256;SDS011;4665;51.368;6.782;2022-10-31T20:02:28;7.77;;;3.00;;
9256;SDS011;4665;51.368;6.782;2022-10-31T20:04:53;5.30;;;3.07;;